Time;durP1;ratioP1;P1;durP2;ratioP2;P2;SDS_P1;SDS_P2;PMS_P1;PMS_P2;Temp;Humidity;BMP_temperature;BMP_pressure;BME280_temperature;BME280_humidity;BME280_pressure;Samples;Min_cycle;Max_cycle;Signal;HPM_P1;HPM_P2
2022/07/13 00:02:03;;;;;;;;;;;;;;;14.60;77.08;99039.47;4650299;30;20365;-87
2022/07/13 00:04:31;;;;;;;;;;;;;;;14.53;77.10;99033.47;4651599;30;19924;-86
2022/07/13 00:06:59;;;;;;;;;;;;;;;14.49;77.29;99032.38;4651642;30;20357;-87
2022/07/13 00:13:52;;;;;;;;;;;;;;;14.60;76.88;99023.16;4651226;30;19979;-83
2022/07/13 00:16:24;;;;;;;;;;;;;;;14.54;77.04;99026.16;4664009;30;20396;-84
2022/07/13 00:19:02;;;;;;;;;;;;;;;14.48;77.26;99017.97;4654143;30;20346;-82
2022/07/13 00:21:33;;;;;;;;;;;;;;;14.42;77.41;99020.94;4651340;30;20397;-85
2022/07/13 00:24:02;;;;;;;;;;;;;;;14.35;77.71;99023.09;4651139;30;19923;-85
2022/07/13 00:26:36;;;;;;;;;;;;;;;14.29;77.90;99023.09;4650874;30;20472;-85
2022/07/13 00:29:06;;;;;;;;;;;;;;;14.29;77.99;99020.38;4651033;30;20377;-85
2022/07/13 00:31:34;;;;;;;;;;;;;;;14.38;77.81;99030.69;4663957;30;20366;-85
2022/07/13 00:34:09;;;;;;;;;;;;;;;14.37;77.67;99026.38;4651076;30;20378;-85
2022/07/13 00:36:39;;;;;;;;;;;;;;;14.35;77.78;99025.81;4663865;30;20381;-83
2022/07/13 00:39:08;;;;;;;;;;;;;;;14.35;78.12;99033.97;4651056;30;20374;-85
2022/07/13 00:41:45;;;;;;;;;;;;;;;14.37;78.19;99032.59;4664006;30;20448;-85
2022/07/13 00:44:16;;;;;;;;;;;;;;;14.38;77.97;99031.53;4651095;30;20373;-84
2022/07/13 00:46:47;;;;;;;;;;;;;;;14.33;77.82;99023.38;4651296;30;20379;-85
2022/07/13 00:53:39;;;;;;;;;;;;;;;14.37;77.75;99029.09;4650694;30;20407;-85
2022/07/13 00:56:07;;;;;;;;;;;;;;;14.36;77.77;99031.00;4650413;30;20377;-83
2022/07/13 00:58:35;;;;;;;;;;;;;;;14.37;78.02;99035.31;4663792;30;20357;-83
2022/07/13 01:05:36;;;;;;;;;;;;;;;14.50;77.67;99025.84;4650601;30;20420;-84
2022/07/13 01:08:07;;;;;;;;;;;;;;;14.49;77.68;99026.94;4650640;30;20370;-84
2022/07/13 01:14:54;;;;;;;;;;;;;;;14.36;77.94;99022.84;4650419;30;19978;-83
2022/07/13 01:17:29;;;;;;;;;;;;;;;14.31;78.16;99022.84;4649152;30;20369;-83
2022/07/13 01:19:59;;;;;;;;;;;;;;;14.26;78.19;99020.91;4664672;30;20411;-83
2022/07/13 01:22:40;;;;;;;;;;;;;;;14.24;78.45;99025.00;4667160;30;20436;-81
2022/07/13 01:25:10;;;;;;;;;;;;;;;14.23;78.54;99015.19;4617778;31;20413;-83
2022/07/13 01:27:41;;;;;;;;;;;;;;;14.23;78.43;99018.75;4618765;31;20444;-83
2022/07/13 01:30:10;;;;;;;;;;;;;;;14.19;78.56;99014.94;4617810;31;20424;-84
2022/07/13 01:32:48;;;;;;;;;;;;;;;14.23;78.58;99012.47;4617404;31;19953;-83
2022/07/13 01:35:18;;;;;;;;;;;;;;;14.24;78.42;99014.13;4631468;31;20366;-83
2022/07/13 01:37:52;;;;;;;;;;;;;;;14.25;78.55;99015.75;4631917;31;20421;-83
2022/07/13 01:40:24;;;;;;;;;;;;;;;14.32;78.45;99011.69;4618403;31;20491;-84
2022/07/13 01:42:59;;;;;;;;;;;;;;;14.41;78.11;99016.63;4631603;31;19924;-83
2022/07/13 01:45:27;;;;;;;;;;;;;;;14.52;77.81;99016.34;4631119;31;20370;-82
2022/07/13 01:47:57;;;;;;;;;;;;;;;14.65;77.60;99015.03;4617247;31;20401;-83
2022/07/13 01:50:32;;;;;;;;;;;;;;;14.74;77.30;99018.03;4630926;31;20433;-83
2022/07/13 01:53:05;;;;;;;;;;;;;;;14.80;77.16;99019.66;4630716;31;20464;-83
2022/07/13 01:55:36;;;;;;;;;;;;;;;14.89;77.36;99023.47;4640845;30;20392;-82
2022/07/13 01:58:04;;;;;;;;;;;;;;;14.99;77.05;99016.38;4665968;30;20377;-83
2022/07/13 02:00:34;;;;;;;;;;;;;;;15.01;77.00;99022.34;4666631;30;19923;-83
2022/07/13 02:03:04;;;;;;;;;;;;;;;15.04;76.93;99013.66;4666536;30;20405;-84
2022/07/13 02:05:34;;;;;;;;;;;;;;;15.11;77.10;99003.31;4666735;30;19924;-85
2022/07/13 02:08:05;;;;;;;;;;;;;;;15.23;76.85;99003.03;4665516;30;20333;-84
2022/07/13 02:14:59;;;;;;;;;;;;;;;15.58;76.02;99007.56;4674527;30;19930;-85
2022/07/13 02:17:30;;;;;;;;;;;;;;;15.71;75.93;99003.47;4667438;30;20349;-84
2022/07/13 02:20:01;;;;;;;;;;;;;;;15.77;75.88;98994.19;4666322;30;20364;-85
2022/07/13 02:22:43;;;;;;;;;;;;;;;15.79;75.78;99000.97;4666524;30;20377;-83
2022/07/13 02:25:12;;;;;;;;;;;;;;;15.81;75.64;98998.78;4666042;30;20369;-86
2022/07/13 02:27:47;;;;;;;;;;;;;;;15.79;75.87;98994.72;4665197;30;20399;-83
2022/07/13 02:34:47;;;;;;;;;;;;;;;15.79;75.94;98994.72;4666609;30;20010;-85
2022/07/13 02:37:16;;;;;;;;;;;;;;;15.88;75.60;98987.63;4665751;30;20393;-84
2022/07/13 02:44:10;;;;;;;;;;;;;;;16.11;74.40;98980.69;4666214;30;20397;-84
2022/07/13 02:46:42;;;;;;;;;;;;;;;16.11;74.01;98966.25;4665786;30;20451;-83
2022/07/13 02:49:13;;;;;;;;;;;;;;;16.29;73.70;98987.38;4666502;30;20369;-84
2022/07/13 02:51:47;;;;;;;;;;;;;;;16.42;72.87;98984.00;4665841;30;20395;-83
2022/07/13 02:54:16;;;;;;;;;;;;;;;16.58;72.08;98989.34;4666011;30;20392;-82
2022/07/13 02:56:44;;;;;;;;;;;;;;;16.75;71.49;98991.66;4665696;30;20377;-83
2022/07/13 02:59:14;;;;;;;;;;;;;;;16.85;71.06;98992.41;4664718;30;20450;-84
2022/07/13 03:01:43;;;;;;;;;;;;;;;16.97;70.47;98993.97;4665806;30;20395;-84
2022/07/13 03:04:14;;;;;;;;;;;;;;;17.10;69.51;98987.84;4666203;30;20353;-85
2022/07/13 03:06:43;;;;;;;;;;;;;;;17.21;68.83;98996.72;4666168;30;19924;-85
2022/07/13 03:09:11;;;;;;;;;;;;;;;17.29;68.82;98990.63;4667285;30;20392;-85
2022/07/13 03:11:43;;;;;;;;;;;;;;;17.34;68.38;98996.03;4664416;30;19928;-84
2022/07/13 03:14:12;;;;;;;;;;;;;;;17.39;68.30;98995.16;4664710;30;20369;-84
2022/07/13 03:16:43;;;;;;;;;;;;;;;17.44;68.02;99001.38;4650747;30;20360;-84
2022/07/13 03:19:11;;;;;;;;;;;;;;;17.51;67.40;99007.31;4665477;30;20395;-85
2022/07/13 03:21:42;;;;;;;;;;;;;;;17.62;67.06;99008.00;4664310;30;19962;-83
2022/07/13 03:24:14;;;;;;;;;;;;;;;17.68;66.91;99004.13;4666037;30;20362;-83
2022/07/13 03:26:45;;;;;;;;;;;;;;;17.76;66.79;99008.91;4651479;30;20376;-83
2022/07/13 03:29:13;;;;;;;;;;;;;;;17.84;66.69;98998.50;4651425;30;20365;-84
2022/07/13 03:31:46;;;;;;;;;;;;;;;17.88;66.32;99002.28;4667628;30;20443;-83
2022/07/13 03:34:18;;;;;;;;;;;;;;;17.94;65.63;99006.56;4666057;30;20392;-84
2022/07/13 03:36:51;;;;;;;;;;;;;;;17.98;65.51;99004.88;4641079;30;20392;-85
2022/07/13 03:39:20;;;;;;;;;;;;;;;18.07;65.26;99002.28;4643856;30;20391;-85
2022/07/13 03:41:55;;;;;;;;;;;;;;;18.16;65.24;99004.06;4641502;30;20350;-82
2022/07/13 03:44:25;;;;;;;;;;;;;;;18.22;64.80;99004.81;4641377;30;20441;-84
2022/07/13 03:47:26;;;;;;;;;;;;;;;18.31;64.60;99002.25;4641044;30;19927;-84
2022/07/13 03:54:12;;;;;;;;;;;;;;;18.47;63.57;98995.44;4633224;31;20285;-81
2022/07/13 03:56:48;;;;;;;;;;;;;;;18.58;63.64;99007.84;4606525;31;19931;-83
2022/07/13 03:59:35;;;;;;;;;;;;;;;18.59;63.35;98987.59;4607553;31;20420;-84
2022/07/13 04:02:04;;;;;;;;;;;;;;;18.65;62.98;98998.44;4619955;31;20322;-84
2022/07/13 04:04:35;;;;;;;;;;;;;;;18.74;62.91;99005.66;4591912;31;19952;-83
2022/07/13 04:07:03;;;;;;;;;;;;;;;18.79;62.79;99005.63;4619534;31;19924;-82
2022/07/13 04:09:39;;;;;;;;;;;;;;;18.88;62.33;99004.94;4606522;31;20477;-82
2022/07/13 04:12:10;;;;;;;;;;;;;;;18.95;62.12;99006.16;4618962;31;20473;-84
2022/07/13 04:14:39;;;;;;;;;;;;;;;19.01;62.03;99001.41;4606218;31;20453;-83
2022/07/13 04:17:10;;;;;;;;;;;;;;;19.07;61.77;99004.88;4632931;31;19964;-84
2022/07/13 04:19:38;;;;;;;;;;;;;;;19.05;61.94;99000.50;4619016;31;19928;-84
2022/07/13 04:22:10;;;;;;;;;;;;;;;19.13;61.95;99004.47;4618585;31;19924;-85
2022/07/13 04:24:40;;;;;;;;;;;;;;;19.23;61.90;99007.03;4632711;31;20370;-85
2022/07/13 04:27:08;;;;;;;;;;;;;;;19.38;61.72;99005.13;4640146;30;20388;-83
2022/07/13 04:34:03;;;;;;;;;;;;;;;19.58;60.85;98998.47;4668293;30;19926;-82
2022/07/13 04:36:37;;;;;;;;;;;;;;;19.62;60.54;98999.47;4667194;30;20347;-85
2022/07/13 04:39:05;;;;;;;;;;;;;;;19.73;60.53;98991.91;4666575;30;19924;-83
2022/07/13 04:45:57;;;;;;;;;;;;;;;19.83;59.98;98997.97;4668034;30;19943;-83
2022/07/13 04:48:31;;;;;;;;;;;;;;;19.84;60.08;98988.63;4667108;30;20345;-84
2022/07/13 04:55:26;;;;;;;;;;;;;;;20.09;59.02;98989.19;4667557;30;19926;-85
2022/07/13 04:58:02;;;;;;;;;;;;;;;20.23;59.05;98995.47;4667818;30;19924;-84
2022/07/13 05:04:57;;;;;;;;;;;;;;;20.33;58.38;98995.25;4667642;30;19926;-85
2022/07/13 05:07:25;;;;;;;;;;;;;;;20.32;58.01;98993.59;4668022;30;20368;-84
2022/07/13 05:14:12;;;;;;;;;;;;;;;20.23;58.68;98990.00;4667928;30;19926;-85
2022/07/13 05:16:43;;;;;;;;;;;;;;;20.37;58.49;98986.41;4667568;30;20368;-84
2022/07/13 05:19:18;;;;;;;;;;;;;;;20.27;57.80;98980.00;4666682;30;20361;-83
2022/07/13 05:21:51;;;;;;;;;;;;;;;20.18;58.51;98986.53;4666405;30;19931;-83
2022/07/13 05:24:27;;;;;;;;;;;;;;;20.19;58.04;98978.00;4667352;30;19924;-84
2022/07/13 05:27:00;;;;;;;;;;;;;;;20.22;58.60;98980.13;4666873;30;20443;-83
2022/07/13 05:34:22;;;;;;;;;;;;;;;20.39;58.26;98979.47;4667053;30;19926;-85
2022/07/13 05:36:55;;;;;;;;;;;;;;;20.46;58.40;98977.13;4666370;30;20357;-82
2022/07/13 05:39:23;;;;;;;;;;;;;;;20.59;58.14;98972.72;4666859;30;20321;-85
2022/07/13 05:42:06;;;;;;;;;;;;;;;20.65;57.72;98976.16;4651549;30;20300;-82
2022/07/13 05:44:34;;;;;;;;;;;;;;;20.72;57.28;98977.34;4666621;30;20384;-83
2022/07/13 05:47:07;;;;;;;;;;;;;;;20.82;56.94;98962.56;4639207;30;20379;-83
2022/07/13 05:49:35;;;;;;;;;;;;;;;20.95;56.86;98969.91;4666600;30;20345;-82
2022/07/13 05:52:07;;;;;;;;;;;;;;;21.06;56.91;98969.63;4666463;30;19987;-85
2022/07/13 05:54:42;;;;;;;;;;;;;;;21.14;56.90;98969.69;4637571;30;20020;-86
2022/07/13 05:57:12;;;;;;;;;;;;;;;21.15;56.81;98970.50;4666888;30;20456;-84
2022/07/13 05:59:41;;;;;;;;;;;;;;;21.19;56.68;98966.81;4665583;30;20411;-84
2022/07/13 06:02:12;;;;;;;;;;;;;;;21.36;56.54;98955.06;4666507;30;19924;-83
2022/07/13 06:04:41;;;;;;;;;;;;;;;21.59;55.88;98969.56;4666639;30;20464;-85
2022/07/13 06:07:09;;;;;;;;;;;;;;;21.54;54.32;98961.47;4650356;30;20377;-83
2022/07/13 06:14:03;;;;;;;;;;;;;;;21.63;52.68;98956.81;4666503;30;20427;-81
2022/07/13 06:16:34;;;;;;;;;;;;;;;21.84;52.77;98973.50;4664949;30;20372;-83
2022/07/13 06:19:03;;;;;;;;;;;;;;;21.71;49.88;98981.88;4666018;30;20460;-83
2022/07/13 06:21:31;;;;;;;;;;;;;;;21.58;50.01;98980.88;4623104;30;20313;-83
2022/07/13 06:23:59;;;;;;;;;;;;;;;21.36;50.84;98965.25;4666144;30;20397;-83
2022/07/13 06:26:31;;;;;;;;;;;;;;;21.38;50.74;98965.75;4636876;30;20336;-85
2022/07/13 06:28:59;;;;;;;;;;;;;;;21.39;50.94;98945.44;4664762;30;19923;-81
2022/07/13 06:31:28;;;;;;;;;;;;;;;21.31;51.05;98959.91;4666381;30;20350;-82
2022/07/13 06:33:57;;;;;;;;;;;;;;;21.58;51.00;98956.16;4665919;30;20387;-82
2022/07/13 06:36:28;;;;;;;;;;;;;;;21.70;49.53;98961.84;4666043;30;20439;-84
2022/07/13 06:38:56;;;;;;;;;;;;;;;21.75;48.39;98963.63;4650476;30;20385;-81
2022/07/13 06:46:01;;;;;;;;;;;;;;;21.90;47.18;98968.66;4665828;30;19971;-83
2022/07/13 06:48:30;;;;;;;;;;;;;;;21.94;46.97;98964.16;4665802;30;20432;-81
2022/07/13 06:50:58;;;;;;;;;;;;;;;21.93;46.76;98959.00;4650638;30;20272;-81
2022/07/13 06:53:30;;;;;;;;;;;;;;;21.96;45.76;98980.34;4665696;30;20420;-81
2022/07/13 06:56:01;;;;;;;;;;;;;;;22.02;45.95;98966.09;4664308;30;20395;-82
2022/07/13 06:58:29;;;;;;;;;;;;;;;22.13;45.96;98966.63;4665578;30;20388;-82
2022/07/13 07:00:58;;;;;;;;;;;;;;;22.25;44.90;98960.50;4650478;30;20378;-83
2022/07/13 07:03:26;;;;;;;;;;;;;;;22.18;44.93;98957.38;4666036;30;20373;-80
2022/07/13 07:05:55;;;;;;;;;;;;;;;22.26;44.56;98965.69;4665963;30;20365;-83
2022/07/13 07:08:23;;;;;;;;;;;;;;;22.33;43.76;98961.63;4650316;30;20341;-85
2022/07/13 07:10:51;;;;;;;;;;;;;;;22.36;43.63;98961.81;4651713;30;20373;-82
2022/07/13 07:13:26;;;;;;;;;;;;;;;22.38;42.56;98955.97;4668139;30;20415;-82
2022/07/13 07:15:59;;;;;;;;;;;;;;;22.40;42.14;98957.25;4654588;30;20373;-82
2022/07/13 07:18:28;;;;;;;;;;;;;;;22.37;41.87;98924.94;4640580;30;20388;-81
2022/07/13 07:25:03;;;;;;;;;;;;;;;22.35;42.27;98951.94;4668920;30;20383;-83
2022/07/13 07:27:36;;;;;;;;;;;;;;;22.48;41.58;98945.47;4653465;30;20273;-82
2022/07/13 07:34:30;;;;;;;;;;;;;;;22.82;41.62;98954.00;4668903;30;20001;-83
2022/07/13 07:36:59;;;;;;;;;;;;;;;22.89;41.15;98962.56;4667756;30;20373;-81
2022/07/13 07:43:55;;;;;;;;;;;;;;;23.01;41.63;98953.63;4669134;30;20016;-84
2022/07/13 07:46:24;;;;;;;;;;;;;;;23.20;42.23;98943.06;4654105;30;20297;-84
2022/07/13 07:48:55;;;;;;;;;;;;;;;23.51;40.53;98941.94;4667609;30;20373;-83
2022/07/13 07:55:54;;;;;;;;;;;;;;;23.51;41.24;98945.50;4668685;30;19926;-83
2022/07/13 07:58:28;;;;;;;;;;;;;;;23.79;40.81;98945.84;4669125;30;20431;-85
2022/07/13 08:05:19;;;;;;;;;;;;;;;24.25;40.09;98937.75;4668881;30;19927;-83
2022/07/13 08:07:48;;;;;;;;;;;;;;;23.97;40.37;98935.53;4667316;30;20390;-83
2022/07/13 08:10:27;;;;;;;;;;;;;;;23.93;40.71;98945.63;4654771;30;20392;-84
2022/07/13 08:12:56;;;;;;;;;;;;;;;24.06;39.77;98943.75;4653738;30;20445;-83
2022/07/13 08:15:28;;;;;;;;;;;;;;;24.38;38.96;98949.63;4639942;30;19924;-83
2022/07/13 08:17:59;;;;;;;;;;;;;;;24.70;38.81;98931.53;4668489;30;20369;-83
2022/07/13 08:20:29;;;;;;;;;;;;;;;24.90;38.05;98940.09;4653482;30;20392;-85
2022/07/13 08:22:58;;;;;;;;;;;;;;;25.03;38.89;98938.97;4638010;30;20281;-82
2022/07/13 08:25:29;;;;;;;;;;;;;;;24.77;39.29;98947.53;4667221;30;20432;-84
2022/07/13 08:28:00;;;;;;;;;;;;;;;23.85;41.39;98934.63;4668759;30;20357;-85
2022/07/13 08:44:48;;;;;;;;;;;;;;;25.02;38.05;98909.78;4668348;30;20026;-84
2022/07/13 08:47:19;;;;;;;;;;;;;;;25.76;37.25;98927.19;4666723;30;20372;-84
2022/07/13 08:49:48;;;;;;;;;;;;;;;26.17;35.91;98914.22;4652794;30;20373;-84
2022/07/13 08:52:17;;;;;;;;;;;;;;;26.46;35.65;98921.38;4624565;30;20373;-84
2022/07/13 08:54:50;;;;;;;;;;;;;;;26.65;34.78;98914.38;4667417;30;20387;-84
2022/07/13 08:57:21;;;;;;;;;;;;;;;26.74;34.37;98924.16;4638409;30;20262;-83
2022/07/13 09:04:13;;;;;;;;;;;;;;;26.80;31.72;98910.84;4667844;30;19958;-82
2022/07/13 09:06:47;;;;;;;;;;;;;;;26.61;31.85;98914.28;4667794;30;20423;-84
2022/07/13 09:09:32;;;;;;;;;;;;;;;26.99;31.38;98922.03;4667904;30;20373;-84
2022/07/13 09:12:32;;;;;;;;;;;;;;;26.87;31.13;98918.53;4642040;30;20254;-84
2022/07/13 09:15:02;;;;;;;;;;;;;;;26.67;31.95;98909.31;4652763;30;20347;-84
2022/07/13 09:17:35;;;;;;;;;;;;;;;27.16;32.11;98914.53;4638338;30;20449;-82
2022/07/13 09:20:15;;;;;;;;;;;;;;;27.66;31.30;98910.22;4667048;30;20278;-83
2022/07/13 09:22:54;;;;;;;;;;;;;;;27.56;30.79;98897.72;4667236;30;20293;-82
2022/07/13 09:25:28;;;;;;;;;;;;;;;27.44;31.34;98903.38;4651662;30;20278;-83
2022/07/13 09:28:00;;;;;;;;;;;;;;;27.64;31.62;98915.31;4667655;30;20376;-83
2022/07/13 09:35:05;;;;;;;;;;;;;;;28.44;30.27;98896.47;4666494;30;20022;-83
2022/07/13 09:37:36;;;;;;;;;;;;;;;28.39;30.55;98883.69;4638468;30;20270;-83
2022/07/13 09:47:20;;;;;;;;;;;;;;;29.20;27.76;98888.34;4665894;30;20280;-84
2022/07/13 09:54:08;;;;;;;;;;;;;;;28.01;30.00;98876.97;4666589;30;19942;-83
2022/07/13 09:56:36;;;;;;;;;;;;;;;28.16;29.92;98883.63;4665213;30;20365;-84
2022/07/13 09:59:07;;;;;;;;;;;;;;;28.49;28.67;98872.00;4666807;30;20410;-81
2022/07/13 10:06:04;;;;;;;;;;;;;;;28.99;28.16;98874.06;4666230;30;19930;-83
2022/07/13 10:08:33;;;;;;;;;;;;;;;28.47;28.47;98885.44;4650432;30;20313;-81
2022/07/13 10:15:21;;;;;;;;;;;;;;;27.17;30.96;98872.63;4666201;30;19979;-82
2022/07/13 10:17:52;;;;;;;;;;;;;;;26.50;32.31;98869.69;4637714;30;20376;-82
2022/07/13 10:24:55;;;;;;;;;;;;;;;29.01;29.94;98855.84;4665778;30;19926;-83
2022/07/13 10:27:28;;;;;;;;;;;;;;;29.13;29.39;98869.59;4650942;30;20391;-84
2022/07/13 10:34:21;;;;;;;;;;;;;;;30.22;27.84;98854.03;4665882;30;19994;-82
2022/07/13 10:37:00;;;;;;;;;;;;;;;30.33;28.10;98858.97;4651015;30;19934;-83
2022/07/13 10:39:34;;;;;;;;;;;;;;;29.53;28.43;98839.63;4665395;30;20369;-83
2022/07/13 10:42:10;;;;;;;;;;;;;;;30.58;27.02;98851.69;4665522;30;19928;-83
2022/07/13 10:44:42;;;;;;;;;;;;;;;29.31;28.50;98847.63;4665385;30;19974;-83
2022/07/13 10:47:12;;;;;;;;;;;;;;;28.20;30.29;98840.09;4665892;30;20458;-81
2022/07/13 10:54:06;;;;;;;;;;;;;;;27.28;31.60;98844.41;4666838;30;20333;-83
2022/07/13 10:56:34;;;;;;;;;;;;;;;26.28;32.88;98834.28;4668960;30;20387;-81
2022/07/13 10:59:02;;;;;;;;;;;;;;;25.87;33.78;98834.34;4668351;30;20361;-81
2022/07/13 11:06:08;;;;;;;;;;;;;;;26.88;32.64;98826.00;4666099;30;19979;-84
2022/07/13 11:09:00;;;;;;;;;;;;;;;28.31;30.69;98818.13;4665874;30;20448;-83
2022/07/13 11:15:52;;;;;;;;;;;;;;;30.11;28.03;98805.81;4629710;31;20394;-83
2022/07/13 11:18:23;;;;;;;;;;;;;;;30.16;27.39;98819.41;4629881;31;20488;-83
2022/07/13 11:25:14;;;;;;;;;;;;;;;29.74;28.23;98806.56;4615764;31;20281;-84
2022/07/13 11:27:55;;;;;;;;;;;;;;;29.80;27.44;98807.84;4629844;31;20381;-84
2022/07/13 11:34:49;;;;;;;;;;;;;;;31.99;24.67;98795.78;4629605;30;19927;-83
2022/07/13 11:37:24;;;;;;;;;;;;;;;31.70;24.54;98805.97;4629959;31;20418;-82
2022/07/13 11:44:18;;;;;;;;;;;;;;;33.36;24.00;98793.91;4629588;31;19971;-82
2022/07/13 11:51:14;;;;;;;;;;;;;;;33.72;24.17;98793.84;4665328;30;19931;-83
2022/07/13 11:53:45;;;;;;;;;;;;;;;32.08;25.51;98807.38;4664257;30;20385;-83
2022/07/13 11:56:15;;;;;;;;;;;;;;;31.56;25.25;98800.34;4665923;30;20377;-82
2022/07/13 11:58:45;;;;;;;;;;;;;;;30.35;26.60;98800.94;4668529;30;20361;-83
2022/07/13 12:05:44;;;;;;;;;;;;;;;30.27;25.99;98790.91;4668142;30;19926;-82
2022/07/13 12:08:15;;;;;;;;;;;;;;;31.06;25.89;98789.63;4669059;30;20328;-82
2022/07/13 12:15:09;;;;;;;;;;;;;;;32.62;23.81;98790.75;4669543;30;19928;-83
2022/07/13 12:17:44;;;;;;;;;;;;;;;31.95;24.04;98786.59;4668773;30;20384;-82
2022/07/13 12:20:24;;;;;;;;;;;;;;;32.19;24.10;98796.25;4667959;30;20372;-82
2022/07/13 12:23:06;;;;;;;;;;;;;;;33.34;22.97;98799.91;4668341;30;20345;-83
2022/07/13 12:25:40;;;;;;;;;;;;;;;33.35;22.59;98778.31;4668134;30;20420;-81
2022/07/13 12:28:09;;;;;;;;;;;;;;;34.43;22.27;98781.47;4668093;30;20368;-83
2022/07/13 12:35:04;;;;;;;;;;;;;;;32.13;23.90;98792.22;4668118;30;20280;-83
2022/07/13 12:37:38;;;;;;;;;;;;;;;32.94;23.58;98781.56;4651729;30;20365;-83
2022/07/13 12:44:34;;;;;;;;;;;;;;;31.98;23.75;98765.47;4667747;30;19942;-83
2022/07/13 12:47:08;;;;;;;;;;;;;;;32.50;23.71;98760.41;4652188;30;20357;-83
2022/07/13 12:54:01;;;;;;;;;;;;;;;33.93;21.66;98774.16;4667380;30;20380;-82
2022/07/13 12:56:44;;;;;;;;;;;;;;;33.39;22.44;98776.31;4667289;30;20388;-82
2022/07/13 12:59:12;;;;;;;;;;;;;;;32.13;24.25;98759.53;4667645;30;20416;-83
2022/07/13 13:01:40;;;;;;;;;;;;;;;30.04;26.00;98766.78;4652251;30;20325;-84
2022/07/13 13:04:11;;;;;;;;;;;;;;;28.90;27.95;98772.38;4666219;30;20324;-84
2022/07/13 13:06:44;;;;;;;;;;;;;;;28.55;27.94;98764.25;4667209;30;20338;-83
2022/07/13 13:09:20;;;;;;;;;;;;;;;28.62;28.50;98758.81;4667295;30;20377;-83
2022/07/13 13:11:47;;;;;;;;;;;;;;;27.96;29.80;98752.47;4667136;30;20396;-82
2022/07/13 13:14:21;;;;;;;;;;;;;;;27.69;30.04;98750.69;4667062;30;19945;-83
2022/07/13 13:16:51;;;;;;;;;;;;;;;27.73;30.33;98762.66;4667021;30;20435;-83
2022/07/13 13:19:19;;;;;;;;;;;;;;;27.49;30.96;98747.91;4666714;30;20345;-82
2022/07/13 13:26:11;;;;;;;;;;;;;;;30.33;25.99;98739.28;4667006;30;19982;-83
2022/07/13 13:36:07;;;;;;;;;;;;;;;34.96;21.56;98738.22;4666917;30;20357;-82
2022/07/13 13:38:38;;;;;;;;;;;;;;;35.83;20.42;98733.28;4652138;30;20345;-80
2022/07/13 13:41:12;;;;;;;;;;;;;;;36.04;20.89;98735.00;4666985;30;20424;-83
2022/07/13 13:43:43;;;;;;;;;;;;;;;36.48;20.21;98718.31;4666660;30;20365;-85
2022/07/13 13:46:14;;;;;;;;;;;;;;;36.79;20.06;98739.50;4666605;30;20377;-81
2022/07/13 13:48:42;;;;;;;;;;;;;;;35.69;19.83;98725.84;4651056;30;20392;-81
2022/07/13 13:55:35;;;;;;;;;;;;;;;34.59;20.96;98734.19;4666847;30;20025;-83
2022/07/13 13:58:03;;;;;;;;;;;;;;;35.01;20.89;98734.19;4637583;30;20373;-81
2022/07/13 14:00:31;;;;;;;;;;;;;;;33.11;23.23;98724.88;4666080;30;20361;-83
2022/07/13 14:03:01;;;;;;;;;;;;;;;32.02;24.96;98725.22;4666565;30;20365;-81
2022/07/13 14:05:31;;;;;;;;;;;;;;;32.42;24.90;98726.06;4664908;30;20355;-84
2022/07/13 14:07:59;;;;;;;;;;;;;;;33.99;23.26;98719.34;4666130;30;20340;-81
2022/07/13 14:10:27;;;;;;;;;;;;;;;34.54;22.74;98714.97;4666083;30;20361;-83
2022/07/13 14:12:58;;;;;;;;;;;;;;;32.50;24.58;98721.31;4666328;30;20483;-84
2022/07/13 14:15:26;;;;;;;;;;;;;;;30.93;26.53;98719.50;4665411;30;20381;-83
2022/07/13 14:18:00;;;;;;;;;;;;;;;31.87;25.90;98715.19;4666064;30;20420;-83
2022/07/13 14:24:56;;;;;;;;;;;;;;;29.30;30.01;98718.22;4666369;30;19955;-83
2022/07/13 14:27:30;;;;;;;;;;;;;;;28.57;30.97;98720.28;4651795;30;20469;-84
2022/07/13 14:34:23;;;;;;;;;;;;;;;27.58;32.95;98714.44;4665667;30;19986;-83
2022/07/13 14:36:53;;;;;;;;;;;;;;;27.01;34.14;98719.53;4664803;30;20296;-84
2022/07/13 14:39:25;;;;;;;;;;;;;;;27.01;34.70;98719.53;4651039;30;19923;-83
2022/07/13 14:46:22;;;;;;;;;;;;;;;29.93;31.03;98710.22;4666001;30;20390;-83
2022/07/13 14:48:52;;;;;;;;;;;;;;;31.47;29.66;98708.66;4665837;30;20372;-82
2022/07/13 14:55:59;;;;;;;;;;;;;;;33.95;27.04;98703.75;4665509;30;20414;-82
2022/07/13 14:58:27;;;;;;;;;;;;;;;34.76;26.15;98704.38;4666490;30;20357;-81
2022/07/13 15:05:21;;;;;;;;;;;;;;;35.59;25.51;98710.72;4665639;30;19926;-81
2022/07/13 15:07:53;;;;;;;;;;;;;;;35.49;26.24;98705.22;4635984;30;20332;-82
2022/07/13 15:10:22;;;;;;;;;;;;;;;34.82;27.31;98707.56;4636101;30;20432;-81
2022/07/13 15:12:56;;;;;;;;;;;;;;;33.30;29.65;98718.03;4651248;30;20369;-82
2022/07/13 15:15:24;;;;;;;;;;;;;;;34.06;29.28;98708.09;4650661;30;20322;-83
2022/07/13 15:18:01;;;;;;;;;;;;;;;32.30;31.09;98702.13;4650657;30;19930;-83
2022/07/13 15:25:01;;;;;;;;;;;;;;;33.95;28.43;98710.16;4665333;30;19930;-82
2022/07/13 15:27:29;;;;;;;;;;;;;;;32.89;29.59;98704.53;4665591;30;20396;-82
2022/07/13 15:29:57;;;;;;;;;;;;;;;30.97;32.39;98700.84;4665178;30;19928;-83
2022/07/13 15:32:25;;;;;;;;;;;;;;;29.12;34.57;98711.63;4667432;30;20388;-81
2022/07/13 15:34:55;;;;;;;;;;;;;;;27.61;36.56;98703.44;4669098;30;19924;-83
2022/07/13 15:37:29;;;;;;;;;;;;;;;26.81;38.18;98715.91;4653116;30;20404;-83
2022/07/13 15:44:31;;;;;;;;;;;;;;;29.11;35.37;98708.00;4668396;30;20322;-81
2022/07/13 15:47:01;;;;;;;;;;;;;;;31.21;32.43;98706.94;4668229;30;20246;-83
2022/07/13 15:49:32;;;;;;;;;;;;;;;29.88;33.51;98710.56;4668416;30;20403;-82
2022/07/13 15:52:00;;;;;;;;;;;;;;;28.39;35.98;98708.06;4668566;30;20352;-81
2022/07/13 15:54:33;;;;;;;;;;;;;;;28.34;36.16;98711.94;4652837;30;20117;-84
2022/07/13 15:57:01;;;;;;;;;;;;;;;29.97;34.18;98711.06;4653207;30;19927;-85
2022/07/13 15:59:32;;;;;;;;;;;;;;;30.22;34.06;98706.56;4668146;30;19949;-85
2022/07/13 16:02:00;;;;;;;;;;;;;;;30.58;33.42;98711.66;4668383;30;20365;-84
2022/07/13 16:04:33;;;;;;;;;;;;;;;31.39;32.44;98707.03;4652992;30;20369;-84
2022/07/13 16:07:01;;;;;;;;;;;;;;;32.25;30.89;98702.53;4639936;30;20344;-84
2022/07/13 16:09:29;;;;;;;;;;;;;;;32.58;30.47;98708.94;4668005;30;20375;-86
2022/07/13 16:16:23;;;;;;;;;;;;;;;28.18;36.15;98708.47;4667968;30;19971;-83
2022/07/13 16:18:52;;;;;;;;;;;;;;;27.37;37.75;98704.53;4668062;30;20377;-85
2022/07/13 16:21:23;;;;;;;;;;;;;;;26.71;38.97;98711.75;4653007;30;20377;-81
2022/07/13 16:23:54;;;;;;;;;;;;;;;26.32;39.31;98717.06;4667601;30;20455;-83
2022/07/13 16:26:24;;;;;;;;;;;;;;;26.04;40.18;98713.56;4652692;30;20344;-84
2022/07/13 16:29:02;;;;;;;;;;;;;;;25.82;40.70;98715.72;4654570;30;20373;-85
2022/07/13 16:35:59;;;;;;;;;;;;;;;25.02;42.48;98711.00;4667873;30;20030;-85
2022/07/13 16:38:29;;;;;;;;;;;;;;;24.85;42.99;98718.38;4653574;30;20392;-89
2022/07/13 16:40:59;;;;;;;;;;;;;;;24.74;42.86;98722.78;4639200;30;20448;-83
2022/07/13 16:43:27;;;;;;;;;;;;;;;24.53;42.32;98711.03;4666444;30;20361;-86
2022/07/13 16:45:58;;;;;;;;;;;;;;;24.47;41.41;98718.72;4667761;30;20372;-83
2022/07/13 16:48:33;;;;;;;;;;;;;;;24.23;39.64;98713.94;4640624;30;19924;-85
2022/07/13 16:55:21;;;;;;;;;;;;;;;24.11;38.57;98730.50;4668540;30;19946;-83
2022/07/13 16:57:49;;;;;;;;;;;;;;;23.97;38.37;98728.03;4666234;30;20395;-86
2022/07/13 17:00:17;;;;;;;;;;;;;;;23.92;38.32;98725.47;4667589;30;20460;-86
2022/07/13 17:02:48;;;;;;;;;;;;;;;23.51;38.38;98724.38;4670127;30;20373;-88
2022/07/13 17:05:18;;;;;;;;;;;;;;;23.30;39.03;98722.44;4672775;30;20377;-86
2022/07/13 17:07:45;;;;;;;;;;;;;;;22.94;39.48;98726.56;4668817;30;20377;-85
2022/07/13 17:14:42;;;;;;;;;;;;;;;22.56;39.93;98718.34;4667071;30;19926;-85
2022/07/13 17:17:14;;;;;;;;;;;;;;;22.42;40.22;98718.56;4665865;30;19924;-86
2022/07/13 17:20:05;;;;;;;;;;;;;;;22.29;40.49;98714.09;4626394;30;19927;-84
2022/07/13 17:22:35;;;;;;;;;;;;;;;22.06;41.14;98711.53;4667632;30;19990;-85
2022/07/13 17:25:13;;;;;;;;;;;;;;;21.91;41.44;98712.06;4639557;30;20380;-87
2022/07/13 17:27:48;;;;;;;;;;;;;;;21.71;42.15;98715.50;4666271;30;19923;-87
2022/07/13 17:30:20;;;;;;;;;;;;;;;21.54;42.21;98724.53;4666487;30;20369;-86
2022/07/13 17:32:53;;;;;;;;;;;;;;;21.42;43.10;98723.28;4638456;30;20333;-86